• Join FlightAware (Why Join?)
  • Login
  • US Flag 
12:43PM EDT


 

Airport Tracker/Info


-or-


 

Live Flight TrackerFlight Track Log ✈ N81AX ✈ 30-Apr-2013 ✈ KICT - KJYM

Flight Track Log - Related Links

Times and Time Zones

All times are in EDT time to prevent confusion due to time zone crossing. See the N81AX flight status page for this flight to view local times or setup timezone preferences in your user account.

Time Position Orientation Groundspeed Altitude Reporting Facility
EDT Latitude Longitude Course Direction KTS MPH feet Rate Location/Type
08:24PM 37.5911 -97.4381 187° South 185 213 5,100  Level Kansas City Center
08:25PM 37.5953 -97.3256 87° East 258 297 8,700 2,400 Climbing Kansas City Center
08:27PM 37.6339 -97.2306 63° Northeast 303 349 11,100 2,460 Climbing Kansas City Center
08:28PM 37.6717 -97.1150 68° East 349 402 13,800 3,660 Climbing Kansas City Center
08:29PM 37.7292 -96.9794 62° Northeast 365 420 18,700 3,660 Climbing Kansas City Center
08:30PM 37.7778 -96.8744 60° Northeast 352 405 21,400 2,220 Climbing Kansas City Center
08:31PM 37.8261 -96.7578 62° Northeast 371 427 23,300 1,920 Climbing Kansas City Center
08:32PM 37.8806 -96.6356 61° Northeast 397 457 25,400 2,100 Climbing Kansas City Center
08:33PM 37.9364 -96.5089 61° Northeast 409 471 27,700 2,100 Climbing Kansas City Center
08:34PM 37.9875 -96.3811 63° Northeast 409 471 29,800 1,020 Climbing Kansas City Center
08:35PM 38.0553 -96.2183 62° Northeast 434 499 29,900 480 Climbing Kansas City Center
08:36PM 38.1133 -96.0633 65° Northeast 463 533 30,900 1,680 Climbing Kansas City Center
08:37PM 38.1667 -95.9272 63° Northeast 452 520 33,400 2,220 Climbing Kansas City Center
08:38PM 38.2292 -95.7806 61° Northeast 429 494 35,500 1,500 Climbing Kansas City Center
08:39PM 38.2803 -95.6522 63° Northeast 426 490 36,500 900 Climbing Kansas City Center
08:40PM 38.3283 -95.5214 65° Northeast 427 491 37,400 960 Climbing Kansas City Center
08:41PM 38.3944 -95.3697 61° Northeast 435 501 38,500 960 Climbing Kansas City Center
08:42PM 38.4508 -95.2408 61° Northeast 436 502 39,400 720 Climbing Kansas City Center
08:43PM 38.5086 -95.0881 64° Northeast 429 494 40,100 360 Climbing Kansas City Center
08:44PM 38.5578 -94.9536 65° Northeast 436 502 40,200 240 Climbing Kansas City Center
08:45PM 38.6189 -94.7956 64° Northeast 445 512 40,700 420 Climbing Kansas City Center
08:46PM 38.6756 -94.6592 62° Northeast 453 521 41,100 480 Climbing Kansas City Center
08:47PM 38.7389 -94.4994 63° Northeast 452 520 41,700 480 Climbing Kansas City Center
08:48PM 38.7906 -94.3617 64° Northeast 450 518 42,100 240 Climbing Kansas City Center
08:49PM 38.8453 -94.1969 67° East 451 519 42,300 180 Climbing Kansas City Center
08:50PM 38.8947 -94.0553 66° East 455 524 42,500 240 Climbing Kansas City Center
08:51PM 38.9494 -93.9158 63° Northeast 456 525 42,800 240 Climbing Kansas City Center
08:52PM 39.0078 -93.7497 66° East 457 526 43,000 60 Climbing Kansas City Center
08:53PM 39.0594 -93.6081 65° Northeast 457 526 43,000  Level Kansas City Center
08:54PM 39.1222 -93.4400 64° Northeast 464 534 43,000  Level Kansas City Center
08:55PM 39.1711 -93.3028 65° Northeast 472 543 43,000  Level Kansas City Center
08:56PM 39.2394 -93.1211 64° Northeast 474 545 43,000  Level Kansas City Center
08:57PM 39.3006 -92.9728 62° Northeast 474 545 43,000  Level Kansas City Center
08:58PM 39.3525 -92.8219 66° East 468 539 43,000  Level Kansas City Center
08:59PM 39.4064 -92.6694 65° Northeast 470 541 43,000  Level Kansas City Center
09:00PM 39.4642 -92.5236 63° Northeast 467 537 43,000  Level Kansas City Center
09:02PM 39.5258 -92.3439 66° East 461 531 43,000  Level Kansas City Center
09:03PM 39.5817 -92.1942 64° Northeast 465 535 43,000  Level Kansas City Center
09:04PM 39.6381 -92.0428 64° Northeast 470 541 43,000  Level Kansas City Center
09:05PM 39.6925 -91.8861 66° East 480 552 43,000  Level Kansas City Center
09:06PM 39.7461 -91.7344 65° Northeast 476 548 43,000  Level Kansas City Center
09:07PM 39.8122 -91.5561 64° Northeast 464 534 43,000  Level Kansas City Center
09:08PM 39.8628 -91.4014 67° East 470 541 43,000  Level Kansas City Center
09:09PM 39.9186 -91.2469 65° Northeast 473 544 43,000  Level Kansas City Center
09:10PM 39.9733 -91.0961 65° Northeast 469 540 43,000  Level Kansas City Center
09:11PM 40.0197 -90.9358 69° East 471 542 43,000  Level Kansas City Center
09:12PM 40.0681 -90.7783 68° East 470 541 43,000  Level Kansas City Center
09:13PM 40.1181 -90.6225 67° East 468 539 43,000  Level Kansas City Center
09:14PM 40.1661 -90.4656 68° East 465 535 43,000  Level Chicago Center
09:15PM 40.2150 -90.3067 68° East 470 541 43,000  Level Chicago Center
09:16PM 40.2697 -90.1525 65° Northeast 470 541 43,000  Level Chicago Center
09:17PM 40.3186 -89.9958 68° East 468 539 43,000  Level Chicago Center
09:18PM 40.3700 -89.8414 66° East 467 537 43,000  Level Chicago Center
09:19PM 40.4225 -89.6897 66° East 464 534 43,000  Level Chicago Center
09:20PM 40.4769 -89.5031 69° East 461 531 43,000  Level Chicago Center
09:21PM 40.5264 -89.3486 67° East 464 534 43,000  Level Chicago Center
09:22PM 40.5778 -89.1947 66° East 463 533 43,000  Level Chicago Center
09:23PM 40.6283 -89.0386 67° East 467 537 43,000  Level Chicago Center
09:24PM 40.6778 -88.8831 67° East 463 533 43,000  Level Chicago Center
09:25PM 40.7306 -88.7250 66° East 465 535 43,000  Level Chicago Center
09:26PM 40.7878 -88.5364 68° East 465 535 43,000  Level Chicago Center
09:27PM 40.8389 -88.3825 66° East 465 535 43,000  Level Chicago Center
09:28PM 40.8897 -88.2244 67° East 471 542 43,000  Level Chicago Center
09:29PM 40.9342 -88.0661 70° East 466 536 43,000 -540 Level Chicago Center
09:30PM 40.9847 -87.9136 66° East 460 529 41,900 -1,320 Descending Chicago Center
09:31PM 41.0447 -87.7311 66° East 456 525 40,300 -1,380 Descending Chicago Center
09:32PM 41.0878 -87.5803 69° East 447 514 39,100 -1,440 Descending Chicago Center
09:33PM 41.1336 -87.4389 67° East 427 491 37,400 -1,980 Descending Chicago Center
09:34PM 41.1742 -87.2922 70° East 427 491 35,100 -2,280 Descending Chicago Center
09:35PM 41.2119 -87.1386 72° East 441 507 32,800 -2,100 Descending Chicago Center
09:36PM 41.2578 -86.9892 68° East 443 510 30,900 -2,100 Descending Chicago Center
09:37PM 41.3117 -86.8092 68° East 442 509 28,500 -2,100 Descending Chicago Center
09:38PM 41.3558 -86.6647 68° East 437 503 26,700 -1,860 Descending Chicago Center
09:39PM 41.4039 -86.5078 68° East 455 524 24,700 -1,440 Descending Chicago Center
09:40PM 41.4456 -86.3436 71° East 468 539 23,800 -1,020 Descending Chicago Center
09:41PM 41.4889 -86.1931 69° East 438 504 22,700 -1,380 Descending Chicago Center
09:42PM 41.5328 -86.0489 68° East 425 489 21,000 -1,860 Descending Chicago Center
09:43PM 41.5733 -85.9025 70° East 420 483 19,000 -2,100 Descending Chicago Center
09:44PM 41.6206 -85.7281 70° East 412 474 16,700 -1,800 Descending Chicago Center
09:45PM 41.6564 -85.6017 69° East 365 420 15,400 -1,620 Descending Chicago Center
09:47PM 41.6933 -85.4803 68° East 346 398 13,500 -1,980 Descending Chicago Center
09:48PM 41.7244 -85.3458 73° East 363 418 11,400 -1,680 Descending Chicago Center
09:49PM 41.7556 -85.2256 71° East 347 399 10,100 -1,620 Descending Chicago Center
09:50PM 41.7869 -85.1222 68° East 311 358 8,100 -2,220 Descending Chicago Center
09:51PM 41.8133 -85.0133 72° East 306 352 5,700 -1,560 Descending Chicago Center
09:52PM 41.8461 -84.9178 65° Northeast 291 335 5,000 -360 Descending Chicago Center
09:53PM 41.8769 -84.8403 62° Northeast 251 289 5,000 -540 Level Chicago Center
09:54PM 41.9067 -84.7697 60° Northeast 228 262 4,000 -840 Descending Chicago Center
09:55PM 41.9342 -84.6956 63° Northeast 224 258 3,300 -720 Descending Chicago Center